Time;durP1;ratioP1;P1;durP2;ratioP2;P2;SDS_P1;SDS_P2;PMS_P1;PMS_P2;Temp;Humidity;BMP_temperature;BMP_pressure;BME280_temperature;BME280_humidity;BME280_pressure;Samples;Min_cycle;Max_cycle;Signal;HPM_P1;HPM_P2
2022/06/10 00:01:52;;;;;;;17.25;3.13;;;;;;;;;;5112540;28;20226;-68
2022/06/10 00:04:18;;;;;;;9.15;2.45;;;;;;;;;;5092413;28;20181;-68
2022/06/10 00:06:44;;;;;;;19.38;3.22;;;;;;;;;;5111455;28;20181;-69
2022/06/10 00:09:11;;;;;;;14.23;3.20;;;;;;;;;;5094140;28;20208;-66
2022/06/10 00:11:37;;;;;;;15.30;3.40;;;;;;;;;;5112052;28;20181;-68
2022/06/10 00:14:03;;;;;;;16.10;3.05;;;;;;;;;;5093325;28;20727;-67
2022/06/10 00:16:29;;;;;;;20.63;2.97;;;;;;;;;;5112169;28;20280;-67
2022/06/10 00:18:56;;;;;;;19.02;3.35;;;;;;;;;;5112154;27;20268;-68
2022/06/10 00:21:22;;;;;;;17.42;4.03;;;;;;;;;;5112153;28;20192;-68
2022/06/10 00:23:49;;;;;;;17.70;3.25;;;;;;;;;;5110255;27;20182;-67
2022/06/10 00:26:15;;;;;;;18.05;3.58;;;;;;;;;;5110045;28;20185;-66
2022/06/10 00:28:43;;;;;;;23.15;4.22;;;;;;;;;;5093620;28;20181;-67
2022/06/10 00:31:09;;;;;;;22.23;4.40;;;;;;;;;;5111872;28;20600;-67
2022/06/10 00:33:36;;;;;;;17.83;4.20;;;;;;;;;;5111721;27;20193;-67
2022/06/10 00:36:03;;;;;;;19.63;4.13;;;;;;;;;;5076311;28;20682;-67
2022/06/10 00:38:29;;;;;;;17.10;3.80;;;;;;;;;;5076868;28;20194;-66
2022/06/10 00:40:56;;;;;;;17.55;3.60;;;;;;;;;;5093413;28;20197;-67
2022/06/10 00:43:24;;;;;;;14.82;3.22;;;;;;;;;;5092255;28;20182;-66
2022/06/10 00:46:11;;;;;;;17.63;3.60;;;;;;;;;;5111579;28;20192;-67
2022/06/10 00:48:37;;;;;;;24.85;3.45;;;;;;;;;;5093126;28;20173;-66
2022/06/10 00:51:10;;;;;;;18.70;3.22;;;;;;;;;;5111555;28;20570;-68
2022/06/10 00:53:36;;;;;;;20.30;3.30;;;;;;;;;;5092494;27;20184;-68
2022/06/10 00:56:06;;;;;;;16.63;3.20;;;;;;;;;;5076341;28;20193;-67
2022/06/10 00:58:35;;;;;;;21.52;3.50;;;;;;;;;;5111473;28;20180;-68
2022/06/10 01:01:02;;;;;;;15.05;3.45;;;;;;;;;;5111083;28;20580;-68
2022/06/10 01:03:28;;;;;;;14.93;3.10;;;;;;;;;;5092177;28;20181;-68
2022/06/10 01:05:54;;;;;;;20.90;3.65;;;;;;;;;;5092984;28;20177;-68
2022/06/10 01:08:21;;;;;;;18.58;3.30;;;;;;;;;;5111316;28;20698;-68
2022/06/10 01:10:56;;;;;;;17.85;3.45;;;;;;;;;;5092929;28;20197;-67
2022/06/10 01:13:45;;;;;;;15.90;3.72;;;;;;;;;;5110150;27;20184;-67
2022/06/10 01:16:35;;;;;;;13.68;3.78;;;;;;;;;;5085445;28;20539;-67
2022/06/10 01:19:07;;;;;;;13.90;3.17;;;;;;;;;;5097866;28;20197;-67
2022/06/10 01:21:36;;;;;;;12.75;3.22;;;;;;;;;;5092836;28;20177;-68
2022/06/10 01:24:14;;;;;;;13.15;3.35;;;;;;;;;;5092018;28;20265;-67
2022/06/10 01:29:37;;;;;;;12.68;2.63;;;;;;;;;;5110581;28;20189;-67
2022/06/10 01:32:06;;;;;;;13.45;3.08;;;;;;;;;;5110861;27;20184;-68
2022/06/10 01:34:46;;;;;;;20.40;3.40;;;;;;;;;;5109890;27;20261;-67
2022/06/10 01:37:18;;;;;;;13.98;3.10;;;;;;;;;;5109629;27;20216;-68
2022/06/10 01:39:45;;;;;;;11.93;2.80;;;;;;;;;;5110522;28;20660;-68
2022/06/10 01:42:20;;;;;;;13.50;2.83;;;;;;;;;;5110655;28;20177;-67
2022/06/10 01:44:52;;;;;;;19.42;3.17;;;;;;;;;;5110255;28;20853;-68
2022/06/10 01:47:38;;;;;;;11.73;2.90;;;;;;;;;;5092258;28;20196;-68
2022/06/10 01:50:13;;;;;;;14.07;3.42;;;;;;;;;;5110304;28;20188;-68
2022/06/10 01:52:46;;;;;;;13.55;2.45;;;;;;;;;;5091724;28;20185;-66
2022/06/10 01:55:18;;;;;;;17.00;2.70;;;;;;;;;;5109771;28;20233;-67
2022/06/10 01:57:47;;;;;;;15.90;3.47;;;;;;;;;;5110434;28;20649;-67
2022/06/10 02:00:25;;;;;;;12.38;2.80;;;;;;;;;;5110069;28;20217;-69
2022/06/10 02:02:55;;;;;;;13.02;2.97;;;;;;;;;;5091374;28;20197;-67
2022/06/10 02:05:22;;;;;;;15.93;3.10;;;;;;;;;;5091989;28;20222;-67
2022/06/10 02:08:03;;;;;;;12.35;3.00;;;;;;;;;;5109645;28;20250;-67
2022/06/10 02:10:32;;;;;;;11.68;2.83;;;;;;;;;;5110165;28;20185;-67
2022/06/10 02:13:02;;;;;;;23.77;3.20;;;;;;;;;;5109387;28;20490;-67
2022/06/10 02:15:36;;;;;;;11.90;2.83;;;;;;;;;;5110187;28;20719;-67
2022/06/10 02:18:05;;;;;;;12.90;2.65;;;;;;;;;;5091984;28;20185;-68
2022/06/10 02:20:32;;;;;;;18.80;3.13;;;;;;;;;;5109985;28;20197;-67
2022/06/10 02:23:02;;;;;;;17.75;2.90;;;;;;;;;;5090729;28;20185;-67
2022/06/10 02:25:31;;;;;;;9.60;2.65;;;;;;;;;;5110017;28;20586;-67
2022/06/10 02:27:59;;;;;;;17.73;3.78;;;;;;;;;;5110008;28;20260;-67
2022/06/10 02:30:27;;;;;;;14.85;2.85;;;;;;;;;;5110059;28;20185;-67
2022/06/10 02:32:55;;;;;;;18.77;3.45;;;;;;;;;;5108817;28;20234;-69
2022/06/10 02:35:22;;;;;;;12.65;3.55;;;;;;;;;;5109854;28;20214;-66
2022/06/10 02:37:54;;;;;;;13.75;3.10;;;;;;;;;;5109984;28;20181;-66
2022/06/10 02:40:32;;;;;;;11.80;3.50;;;;;;;;;;5109910;28;20201;-67
2022/06/10 02:43:28;;;;;;;19.40;3.42;;;;;;;;;;5109113;28;20272;-68
2022/06/10 02:46:13;;;;;;;21.35;3.78;;;;;;;;;;5070210;28;20192;-68
2022/06/10 02:48:43;;;;;;;22.85;3.90;;;;;;;;;;5110017;28;20256;-68
2022/06/10 02:51:09;;;;;;;13.95;3.47;;;;;;;;;;5109904;28;20181;-68
2022/06/10 02:53:35;;;;;;;18.00;3.70;;;;;;;;;;5089515;28;20563;-67
2022/06/10 02:56:01;;;;;;;19.38;4.47;;;;;;;;;;5109593;28;20189;-69
2022/06/10 03:01:30;;;;;;;21.25;3.85;;;;;;;;;;5109578;28;20239;-67
2022/06/10 03:04:08;;;;;;;15.82;3.67;;;;;;;;;;5109808;28;20169;-67
2022/06/10 03:06:53;;;;;;;20.58;3.78;;;;;;;;;;5091623;28;20660;-66
2022/06/10 03:09:31;;;;;;;13.55;4.50;;;;;;;;;;5091472;28;20256;-67
2022/06/10 03:12:24;;;;;;;15.35;4.30;;;;;;;;;;5090579;28;20196;-68
2022/06/10 03:14:50;;;;;;;20.52;3.90;;;;;;;;;;5084488;28;20276;-68
2022/06/10 03:17:16;;;;;;;16.30;4.13;;;;;;;;;;5109632;28;20226;-68
2022/06/10 03:19:51;;;;;;;17.13;3.75;;;;;;;;;;5093519;28;20208;-68
2022/06/10 03:22:20;;;;;;;16.13;4.38;;;;;;;;;;5094323;28;20582;-68
2022/06/10 03:25:03;;;;;;;21.98;4.47;;;;;;;;;;5113467;28;20177;-68
2022/06/10 03:27:37;;;;;;;16.52;4.22;;;;;;;;;;5095054;28;20224;-67
2022/06/10 03:30:05;;;;;;;19.80;4.28;;;;;;;;;;5077920;28;20215;-66
2022/06/10 03:32:39;;;;;;;16.40;4.25;;;;;;;;;;5093647;28;20522;-68
2022/06/10 03:35:24;;;;;;;13.32;4.38;;;;;;;;;;5077875;28;20280;-69
2022/06/10 03:37:51;;;;;;;18.52;4.78;;;;;;;;;;5112940;28;20812;-68
2022/06/10 03:40:19;;;;;;;20.85;4.35;;;;;;;;;;5112924;28;20196;-68
2022/06/10 03:42:47;;;;;;;15.48;4.47;;;;;;;;;;5109222;28;20703;-68
2022/06/10 03:45:15;;;;;;;23.17;4.88;;;;;;;;;;5093406;28;20177;-69
2022/06/10 03:47:42;;;;;;;22.33;4.90;;;;;;;;;;5093471;28;20220;-68
2022/06/10 03:50:12;;;;;;;15.73;5.07;;;;;;;;;;5112739;27;20256;-68
2022/06/10 03:52:39;;;;;;;25.50;5.88;;;;;;;;;;5094490;28;20276;-69
2022/06/10 03:55:06;;;;;;;20.70;5.65;;;;;;;;;;5094145;28;20184;-68
2022/06/10 03:57:32;;;;;;;15.95;5.60;;;;;;;;;;5111825;28;20204;-68
2022/06/10 03:59:58;;;;;;;15.73;5.97;;;;;;;;;;5112328;28;20210;-68
2022/06/10 04:02:24;;;;;;;19.80;6.05;;;;;;;;;;5112458;28;20173;-69
2022/06/10 04:04:51;;;;;;;18.15;6.38;;;;;;;;;;5112564;28;20181;-67
2022/06/10 04:07:18;;;;;;;17.35;6.38;;;;;;;;;;5111004;27;20193;-68
2022/06/10 04:09:47;;;;;;;19.55;6.65;;;;;;;;;;5112154;27;20210;-69
2022/06/10 04:12:15;;;;;;;18.80;7.20;;;;;;;;;;5093963;28;20181;-68
2022/06/10 04:14:42;;;;;;;21.75;6.55;;;;;;;;;;5112263;28;20679;-68
2022/06/10 04:17:09;;;;;;;18.15;6.40;;;;;;;;;;5110024;28;20185;-67
2022/06/10 04:19:35;;;;;;;17.48;6.00;;;;;;;;;;5093964;28;20659;-67
2022/06/10 04:22:02;;;;;;;15.45;6.03;;;;;;;;;;5093938;28;20196;-67
2022/06/10 04:24:28;;;;;;;22.15;6.78;;;;;;;;;;5112144;27;21045;-68
2022/06/10 04:26:54;;;;;;;25.63;6.28;;;;;;;;;;5083055;28;20182;-68
2022/06/10 04:29:20;;;;;;;24.77;6.53;;;;;;;;;;5109142;28;20276;-68
2022/06/10 04:31:47;;;;;;;17.08;5.88;;;;;;;;;;5099516;27;20185;-66
2022/06/10 04:34:14;;;;;;;20.23;5.97;;;;;;;;;;5093853;27;20212;-67
2022/06/10 04:36:40;;;;;;;13.52;5.57;;;;;;;;;;5110700;28;20189;-69
2022/06/10 04:39:06;;;;;;;23.35;5.57;;;;;;;;;;5093479;28;20532;-68
2022/06/10 04:41:33;;;;;;;20.85;5.72;;;;;;;;;;5093038;28;20595;-68
2022/06/10 04:43:59;;;;;;;16.55;4.80;;;;;;;;;;5111547;28;20219;-67
2022/06/10 04:46:27;;;;;;;14.77;4.72;;;;;;;;;;5075377;28;20224;-68
2022/06/10 04:48:54;;;;;;;14.32;4.43;;;;;;;;;;5093069;28;20190;-69
2022/06/10 04:51:20;;;;;;;15.43;4.50;;;;;;;;;;5111365;28;20188;-69
2022/06/10 04:53:46;;;;;;;15.95;4.68;;;;;;;;;;5111393;28;20193;-68
2022/06/10 04:56:12;;;;;;;11.77;4.35;;;;;;;;;;5079092;28;20186;-69
2022/06/10 04:58:39;;;;;;;15.82;4.20;;;;;;;;;;5111218;28;20177;-68
2022/06/10 05:01:06;;;;;;;15.82;4.47;;;;;;;;;;5091294;28;21042;-67
2022/06/10 05:03:32;;;;;;;19.08;5.07;;;;;;;;;;5111367;28;20260;-67
2022/06/10 05:05:59;;;;;;;11.13;3.83;;;;;;;;;;5109577;27;20191;-68
2022/06/10 05:08:25;;;;;;;15.52;4.57;;;;;;;;;;5131753;27;20566;-66
2022/06/10 05:10:51;;;;;;;20.08;5.43;;;;;;;;;;5113000;27;20189;-67
2022/06/10 05:13:17;;;;;;;18.05;4.70;;;;;;;;;;5131143;27;20717;-67
2022/06/10 05:15:44;;;;;;;20.38;5.05;;;;;;;;;;5106997;28;20189;-68
2022/06/10 05:18:10;;;;;;;18.13;4.82;;;;;;;;;;5092709;28;20242;-67
2022/06/10 05:20:39;;;;;;;18.13;5.00;;;;;;;;;;5091910;28;20217;-69
2022/06/10 05:23:06;;;;;;;19.13;4.72;;;;;;;;;;5092547;28;20268;-69
2022/06/10 05:25:32;;;;;;;17.13;5.20;;;;;;;;;;5090753;28;20186;-69
2022/06/10 05:27:58;;;;;;;13.50;4.60;;;;;;;;;;5110926;28;20181;-69
2022/06/10 05:30:26;;;;;;;16.77;4.82;;;;;;;;;;5125846;27;20585;-71
2022/06/10 05:32:52;;;;;;;17.20;4.80;;;;;;;;;;5111413;27;20169;-68
2022/06/10 05:35:19;;;;;;;16.75;5.05;;;;;;;;;;5110938;28;20669;-69
2022/06/10 05:37:48;;;;;;;24.58;5.10;;;;;;;;;;5089582;28;20268;-69
2022/06/10 05:40:15;;;;;;;20.85;5.18;;;;;;;;;;5092102;28;20267;-70
2022/06/10 05:42:43;;;;;;;19.70;5.90;;;;;;;;;;5108526;28;20660;-69
2022/06/10 05:45:10;;;;;;;15.10;5.07;;;;;;;;;;5092108;28;20216;-68
2022/06/10 05:47:36;;;;;;;20.55;5.22;;;;;;;;;;5110490;28;20668;-70
2022/06/10 05:50:05;;;;;;;19.55;6.05;;;;;;;;;;5091541;28;20633;-69
2022/06/10 05:52:32;;;;;;;16.08;5.47;;;;;;;;;;5107360;28;20177;-68
2022/06/10 05:55:00;;;;;;;22.13;5.20;;;;;;;;;;5123267;27;20202;-69
2022/06/10 05:57:27;;;;;;;17.95;4.82;;;;;;;;;;5118052;27;20200;-70
2022/06/10 05:59:53;;;;;;;11.57;4.65;;;;;;;;;;5107240;28;20785;-69
2022/06/10 06:02:22;;;;;;;21.77;5.30;;;;;;;;;;5108163;28;20209;-69
2022/06/10 06:04:48;;;;;;;22.73;6.28;;;;;;;;;;5091926;28;20208;-70
2022/06/10 06:07:25;;;;;;;15.82;4.57;;;;;;;;;;5109647;28;20230;-70
2022/06/10 06:09:52;;;;;;;17.92;5.10;;;;;;;;;;5110582;27;20614;-69
2022/06/10 06:12:19;;;;;;;18.98;5.35;;;;;;;;;;5130688;27;20195;-69
2022/06/10 06:14:45;;;;;;;19.73;4.85;;;;;;;;;;5112085;28;20208;-68
2022/06/10 06:17:12;;;;;;;18.98;4.55;;;;;;;;;;5097251;28;20552;-69
2022/06/10 06:19:38;;;;;;;18.30;5.32;;;;;;;;;;5109839;28;20213;-70
2022/06/10 06:22:04;;;;;;;15.43;5.03;;;;;;;;;;5109537;28;20199;-70
2022/06/10 06:24:31;;;;;;;13.95;4.60;;;;;;;;;;5111585;28;20181;-69
2022/06/10 06:26:57;;;;;;;18.73;5.43;;;;;;;;;;5103334;28;20233;-70
2022/06/10 06:29:24;;;;;;;13.90;4.90;;;;;;;;;;5091276;28;20181;-69
2022/06/10 06:31:52;;;;;;;14.75;4.60;;;;;;;;;;5109949;28;20185;-69
2022/06/10 06:34:20;;;;;;;17.00;5.05;;;;;;;;;;5091127;28;20224;-69
2022/06/10 06:36:47;;;;;;;20.52;5.63;;;;;;;;;;5088940;28;20189;-68
2022/06/10 06:39:14;;;;;;;14.43;4.78;;;;;;;;;;5109544;28;20176;-68
2022/06/10 06:41:40;;;;;;;10.75;4.18;;;;;;;;;;5091474;28;20759;-68
2022/06/10 06:44:07;;;;;;;18.48;4.63;;;;;;;;;;5109877;28;20189;-68
2022/06/10 06:46:34;;;;;;;15.05;4.68;;;;;;;;;;5089183;28;20236;-70
2022/06/10 06:49:01;;;;;;;13.25;4.72;;;;;;;;;;5105322;28;20246;-69
2022/06/10 06:51:27;;;;;;;20.15;4.90;;;;;;;;;;5129766;28;20550;-69
2022/06/10 06:53:53;;;;;;;16.95;4.53;;;;;;;;;;5132767;27;20183;-70
2022/06/10 06:56:19;;;;;;;17.17;4.57;;;;;;;;;;5096556;27;20184;-69
2022/06/10 06:58:45;;;;;;;19.70;4.28;;;;;;;;;;5112471;27;20193;-70
2022/06/10 07:01:12;;;;;;;22.50;4.65;;;;;;;;;;5113140;28;20248;-69
2022/06/10 07:03:38;;;;;;;21.13;4.57;;;;;;;;;;5094924;28;20185;-69
2022/06/10 07:06:04;;;;;;;16.13;4.72;;;;;;;;;;5112837;28;20181;-67
2022/06/10 07:08:33;;;;;;;14.50;4.25;;;;;;;;;;5112523;27;20640;-70
2022/06/10 07:11:00;;;;;;;20.02;5.22;;;;;;;;;;5095789;28;20531;-70
2022/06/10 07:13:26;;;;;;;15.55;4.80;;;;;;;;;;5125148;27;20272;-69
2022/06/10 07:15:53;;;;;;;12.85;3.90;;;;;;;;;;5080742;27;20192;-71
2022/06/10 07:18:19;;;;;;;16.83;4.40;;;;;;;;;;5122331;27;20195;-70
2022/06/10 07:20:45;;;;;;;13.93;4.50;;;;;;;;;;5123341;27;21072;-70
2022/06/10 07:23:11;;;;;;;18.60;4.20;;;;;;;;;;5133424;27;20287;-69
2022/06/10 07:25:37;;;;;;;15.57;4.20;;;;;;;;;;5112183;27;20186;-69
2022/06/10 07:28:04;;;;;;;16.05;4.05;;;;;;;;;;5092937;28;20178;-68
2022/06/10 07:30:32;;;;;;;14.95;4.00;;;;;;;;;;5094404;28;20181;-69
2022/06/10 07:32:58;;;;;;;11.65;3.78;;;;;;;;;;5112649;28;20177;-69
2022/06/10 07:35:25;;;;;;;21.77;4.28;;;;;;;;;;5096829;28;20189;-68
2022/06/10 07:37:51;;;;;;;12.52;4.20;;;;;;;;;;5109437;28;20563;-69
2022/06/10 07:43:04;;;;;;;13.23;3.90;;;;;;;;;;5094144;28;20663;-68
2022/06/10 07:45:31;;;;;;;13.82;4.10;;;;;;;;;;5094641;28;20188;-68
2022/06/10 07:47:57;;;;;;;14.63;4.22;;;;;;;;;;5111852;28;20224;-69
2022/06/10 07:50:23;;;;;;;14.02;4.35;;;;;;;;;;5094719;28;20185;-68
2022/06/10 07:52:50;;;;;;;16.48;5.10;;;;;;;;;;5112264;28;20212;-68
2022/06/10 07:55:17;;;;;;;13.73;4.82;;;;;;;;;;5094597;28;20204;-68
2022/06/10 07:57:43;;;;;;;21.77;5.50;;;;;;;;;;5111857;28;20193;-69
2022/06/10 08:00:10;;;;;;;22.77;5.82;;;;;;;;;;5077348;28;20217;-68
2022/06/10 08:02:38;;;;;;;23.08;5.85;;;;;;;;;;5112675;27;20215;-67
2022/06/10 08:05:05;;;;;;;22.52;6.63;;;;;;;;;;5111763;28;20200;-68
2022/06/10 08:07:31;;;;;;;17.30;6.75;;;;;;;;;;5110013;27;20226;-68
2022/06/10 08:09:57;;;;;;;23.10;6.82;;;;;;;;;;5094188;28;20182;-67
2022/06/10 08:12:24;;;;;;;22.50;7.78;;;;;;;;;;5112706;27;20258;-68
2022/06/10 08:14:50;;;;;;;26.92;8.25;;;;;;;;;;5093355;28;20189;-68
2022/06/10 08:17:16;;;;;;;29.45;7.65;;;;;;;;;;5093993;28;20189;-68
2022/06/10 08:19:42;;;;;;;25.27;8.35;;;;;;;;;;5112450;28;21928;-69
2022/06/10 08:24:54;;;;;;;20.85;8.00;;;;;;;;;;5091879;28;20217;-67
2022/06/10 08:27:20;;;;;;;24.60;8.23;;;;;;;;;;5111055;27;20265;-68
2022/06/10 08:29:46;;;;;;;19.95;7.88;;;;;;;;;;5111078;28;20169;-69
2022/06/10 08:32:12;;;;;;;22.10;8.05;;;;;;;;;;5112206;28;20204;-68
2022/06/10 08:34:41;;;;;;;17.45;6.80;;;;;;;;;;5111809;28;20204;-69
2022/06/10 08:37:08;;;;;;;18.92;6.45;;;;;;;;;;5112182;28;20197;-68
2022/06/10 08:39:34;;;;;;;23.75;6.68;;;;;;;;;;5092812;28;20193;-68
2022/06/10 08:42:09;;;;;;;25.30;6.03;;;;;;;;;;5093633;28;20241;-68
2022/06/10 08:44:45;;;;;;;22.42;6.97;;;;;;;;;;5110853;27;20215;-69
2022/06/10 08:47:30;;;;;;;22.52;7.03;;;;;;;;;;5114816;27;20564;-68
2022/06/10 08:50:19;;;;;;;20.63;7.00;;;;;;;;;;5121191;27;20177;-68
2022/06/10 08:52:54;;;;;;;23.15;7.15;;;;;;;;;;5080752;28;20204;-69
2022/06/10 08:55:39;;;;;;;21.52;6.90;;;;;;;;;;5093473;28;20204;-69
2022/06/10 08:58:13;;;;;;;23.10;6.80;;;;;;;;;;5111625;28;20177;-69
2022/06/10 09:00:40;;;;;;;26.30;7.68;;;;;;;;;;5110430;27;20700;-69
2022/06/10 09:03:07;;;;;;;18.10;6.65;;;;;;;;;;5111518;28;20314;-69
2022/06/10 09:05:38;;;;;;;19.90;7.30;;;;;;;;;;5111515;28;20282;-68
2022/06/10 09:08:06;;;;;;;18.92;6.93;;;;;;;;;;5093020;28;20200;-68
2022/06/10 09:10:42;;;;;;;18.83;6.63;;;;;;;;;;5110180;28;20591;-68
2022/06/10 09:13:20;;;;;;;15.40;6.65;;;;;;;;;;5092967;28;20184;-68
2022/06/10 09:16:00;;;;;;;15.95;6.05;;;;;;;;;;5110700;28;20231;-68
2022/06/10 09:18:47;;;;;;;9.35;4.28;;;;;;;;;;5110926;28;20230;-67
2022/06/10 09:21:36;;;;;;;12.00;3.83;;;;;;;;;;5059505;28;20220;-68
2022/06/10 09:24:04;;;;;;;7.88;3.28;;;;;;;;;;5092811;28;20169;-68
2022/06/10 09:26:39;;;;;;;14.80;3.50;;;;;;;;;;5092937;28;20196;-69
2022/06/10 09:29:06;;;;;;;8.25;3.08;;;;;;;;;;5092349;28;20271;-68
2022/06/10 09:31:40;;;;;;;8.32;2.55;;;;;;;;;;5110234;28;20173;-68
2022/06/10 09:34:24;;;;;;;8.07;2.70;;;;;;;;;;5112838;27;20233;-68
2022/06/10 09:36:54;;;;;;;9.55;2.40;;;;;;;;;;5131172;27;20184;-67
2022/06/10 09:42:42;;;;;;;5.95;1.80;;;;;;;;;;5110623;28;20177;-67
2022/06/10 09:45:15;;;;;;;6.25;2.13;;;;;;;;;;5109208;28;20668;-67
2022/06/10 09:48:17;;;;;;;5.93;1.90;;;;;;;;;;5092190;28;20551;-67
2022/06/10 09:50:43;;;;;;;5.68;1.73;;;;;;;;;;4991464;28;20583;-66
2022/06/10 09:53:22;;;;;;;6.90;1.50;;;;;;;;;;5089643;28;20181;-68
2022/06/10 09:56:07;;;;;;;7.60;2.35;;;;;;;;;;5112464;27;20181;-68
2022/06/10 09:58:35;;;;;;;8.75;1.98;;;;;;;;;;5127099;27;20177;-68
2022/06/10 10:01:18;;;;;;;9.90;2.28;;;;;;;;;;5110260;28;20506;-68
2022/06/10 10:03:44;;;;;;;7.32;2.00;;;;;;;;;;5109516;28;20173;-68
2022/06/10 10:06:13;;;;;;;8.32;2.33;;;;;;;;;;5109690;28;20196;-68
2022/06/10 10:08:45;;;;;;;4.60;1.90;;;;;;;;;;5091164;27;20640;-67
2022/06/10 10:11:17;;;;;;;9.82;2.25;;;;;;;;;;5130817;27;20233;-68
2022/06/10 10:13:46;;;;;;;7.10;2.00;;;;;;;;;;5130498;27;20660;-68
2022/06/10 10:16:20;;;;;;;10.13;2.35;;;;;;;;;;5111361;28;20620;-68
2022/06/10 10:18:52;;;;;;;8.38;2.35;;;;;;;;;;5109929;28;20185;-67
2022/06/10 10:21:38;;;;;;;12.95;2.30;;;;;;;;;;5110279;28;20203;-67
2022/06/10 10:24:09;;;;;;;9.30;2.28;;;;;;;;;;5058792;28;20177;-68
2022/06/10 10:26:38;;;;;;;9.02;2.60;;;;;;;;;;5109484;28;20173;-67
2022/06/10 10:29:18;;;;;;;7.15;2.50;;;;;;;;;;5094466;28;20185;-67
2022/06/10 10:32:03;;;;;;;9.10;2.47;;;;;;;;;;5096406;28;20268;-66
2022/06/10 10:34:36;;;;;;;9.77;2.80;;;;;;;;;;5094739;28;20189;-67
2022/06/10 10:37:05;;;;;;;9.35;2.60;;;;;;;;;;5114335;28;20510;-66
2022/06/10 10:39:31;;;;;;;12.55;3.35;;;;;;;;;;5095838;28;20264;-66
2022/06/10 10:41:59;;;;;;;16.70;3.28;;;;;;;;;;5095815;28;20221;-66
2022/06/10 10:44:25;;;;;;;13.65;3.78;;;;;;;;;;5131067;27;20260;-67
2022/06/10 10:46:58;;;;;;;12.68;3.70;;;;;;;;;;5117569;27;20172;-67
2022/06/10 10:49:33;;;;;;;12.80;3.47;;;;;;;;;;5123742;27;20185;-66
2022/06/10 10:52:01;;;;;;;12.23;3.70;;;;;;;;;;5094059;28;20183;-66
2022/06/10 10:54:29;;;;;;;14.43;3.88;;;;;;;;;;5094744;28;20189;-68
2022/06/10 10:56:56;;;;;;;13.45;3.35;;;;;;;;;;5095335;28;20179;-67
2022/06/10 10:59:29;;;;;;;12.45;3.15;;;;;;;;;;5092828;28;20173;-68
2022/06/10 11:01:56;;;;;;;13.32;3.90;;;;;;;;;;5112742;28;20183;-68
2022/06/10 11:04:26;;;;;;;11.93;3.67;;;;;;;;;;5113494;28;20223;-67
2022/06/10 11:07:04;;;;;;;17.90;4.25;;;;;;;;;;5113529;28;20177;-68
2022/06/10 11:09:31;;;;;;;14.73;3.72;;;;;;;;;;5111523;28;20182;-68
2022/06/10 11:11:57;;;;;;;18.02;3.72;;;;;;;;;;5112192;27;20212;-67
2022/06/10 11:14:31;;;;;;;14.27;3.58;;;;;;;;;;5095467;28;20185;-68
2022/06/10 11:16:57;;;;;;;16.30;4.25;;;;;;;;;;5113495;28;20201;-67
2022/06/10 11:19:40;;;;;;;11.57;3.35;;;;;;;;;;5113523;28;20264;-68
2022/06/10 11:22:11;;;;;;;14.82;3.15;;;;;;;;;;5096671;27;20193;-67
2022/06/10 11:24:43;;;;;;;14.25;3.72;;;;;;;;;;5134039;27;20572;-67
2022/06/10 11:27:27;;;;;;;15.10;3.40;;;;;;;;;;5098599;28;20252;-67
2022/06/10 11:30:10;;;;;;;13.88;3.42;;;;;;;;;;5093062;28;20186;-67
2022/06/10 11:32:39;;;;;;;10.48;2.92;;;;;;;;;;5113015;27;20193;-67
2022/06/10 11:35:24;;;;;;;11.50;3.03;;;;;;;;;;5112889;28;20623;-68
2022/06/10 11:37:53;;;;;;;12.88;2.90;;;;;;;;;;5112839;28;20261;-69
2022/06/10 11:40:24;;;;;;;8.98;3.10;;;;;;;;;;5092280;28;20285;-67
2022/06/10 11:42:56;;;;;;;12.73;3.35;;;;;;;;;;5094547;28;20188;-68
2022/06/10 11:45:24;;;;;;;14.10;2.92;;;;;;;;;;5121638;27;20180;-68
2022/06/10 11:47:54;;;;;;;12.43;3.42;;;;;;;;;;5114797;27;20779;-68
2022/06/10 11:50:30;;;;;;;13.65;3.10;;;;;;;;;;5100102;27;20189;-66
2022/06/10 11:53:19;;;;;;;19.85;3.90;;;;;;;;;;5093021;27;20191;-68
2022/06/10 11:55:50;;;;;;;9.80;2.83;;;;;;;;;;5089750;28;20192;-68
2022/06/10 12:01:13;;;;;;;10.73;2.50;;;;;;;;;;5111414;27;20667;-68
2022/06/10 12:03:42;;;;;;;13.45;3.15;;;;;;;;;;5115141;27;20188;-69
2022/06/10 12:06:21;;;;;;;11.85;2.78;;;;;;;;;;5114468;27;20180;-67
2022/06/10 12:08:53;;;;;;;13.00;2.90;;;;;;;;;;5110737;27;20820;-67
2022/06/10 12:11:40;;;;;;;9.27;2.20;;;;;;;;;;5111945;28;20245;-68
2022/06/10 12:14:13;;;;;;;12.73;2.60;;;;;;;;;;5094138;28;20295;-68
2022/06/10 12:16:39;;;;;;;10.18;2.28;;;;;;;;;;5112369;28;20287;-66
2022/06/10 12:19:07;;;;;;;10.23;2.55;;;;;;;;;;5111520;28;20541;-67
2022/06/10 12:21:34;;;;;;;12.80;2.22;;;;;;;;;;5111700;28;20209;-67
2022/06/10 12:24:00;;;;;;;13.77;2.70;;;;;;;;;;5112397;28;20394;-68
2022/06/10 12:26:32;;;;;;;7.60;1.95;;;;;;;;;;5112382;28;20240;-68
2022/06/10 12:29:10;;;;;;;8.20;2.30;;;;;;;;;;5111344;27;20185;-68
2022/06/10 12:31:46;;;;;;;8.07;2.15;;;;;;;;;;5112118;28;20177;-68
2022/06/10 12:34:25;;;;;;;11.88;2.30;;;;;;;;;;5112243;27;20177;-68
2022/06/10 12:37:00;;;;;;;9.27;2.17;;;;;;;;;;5093608;28;20192;-69
2022/06/10 12:39:31;;;;;;;8.88;2.10;;;;;;;;;;5111267;27;20196;-68
2022/06/10 12:42:16;;;;;;;15.60;2.35;;;;;;;;;;5111863;27;20173;-69
2022/06/10 12:44:47;;;;;;;6.88;2.22;;;;;;;;;;5092733;28;20241;-68
2022/06/10 12:47:15;;;;;;;11.48;2.42;;;;;;;;;;5076936;28;20173;-66
2022/06/10 12:49:43;;;;;;;10.30;2.17;;;;;;;;;;5110223;27;20191;-67
2022/06/10 12:52:09;;;;;;;11.88;2.53;;;;;;;;;;5093194;28;20185;-68
2022/06/10 12:54:45;;;;;;;7.35;1.80;;;;;;;;;;5091056;28;20209;-67
2022/06/10 12:57:29;;;;;;;8.57;1.85;;;;;;;;;;5084309;28;20181;-67
2022/06/10 13:00:14;;;;;;;9.65;1.88;;;;;;;;;;5130028;27;20220;-67
2022/06/10 13:02:44;;;;;;;5.63;1.30;;;;;;;;;;5113588;27;20181;-67
2022/06/10 13:05:21;;;;;;;8.73;1.50;;;;;;;;;;5080026;28;20196;-67
2022/06/10 13:07:49;;;;;;;9.82;1.77;;;;;;;;;;5110417;28;20211;-66
2022/06/10 13:10:38;;;;;;;3.65;1.30;;;;;;;;;;5128118;27;20184;-67
2022/06/10 13:13:13;;;;;;;6.18;1.40;;;;;;;;;;5098677;28;20849;-67
2022/06/10 13:15:39;;;;;;;9.10;1.48;;;;;;;;;;5121935;27;20250;-67
2022/06/10 13:18:21;;;;;;;12.23;1.50;;;;;;;;;;5114443;27;20668;-67
2022/06/10 13:20:49;;;;;;;4.32;1.50;;;;;;;;;;5109881;28;20205;-66
2022/06/10 13:23:16;;;;;;;6.20;1.50;;;;;;;;;;5091456;28;20178;-67
2022/06/10 13:25:44;;;;;;;5.55;1.40;;;;;;;;;;5108237;27;21167;-67
2022/06/10 13:28:28;;;;;;;6.15;1.42;;;;;;;;;;5087433;28;20661;-67
2022/06/10 13:31:02;;;;;;;5.50;1.80;;;;;;;;;;5111154;28;20192;-67
2022/06/10 13:33:30;;;;;;;6.88;1.95;;;;;;;;;;5092689;28;20220;-67
2022/06/10 13:35:57;;;;;;;6.45;1.65;;;;;;;;;;5110934;28;20189;-67
2022/06/10 13:38:23;;;;;;;10.48;1.80;;;;;;;;;;5079543;27;20185;-67
2022/06/10 13:40:51;;;;;;;4.97;1.60;;;;;;;;;;5131078;27;20195;-68
2022/06/10 13:43:29;;;;;;;5.70;1.25;;;;;;;;;;5112986;27;20184;-67
2022/06/10 13:45:55;;;;;;;3.58;1.42;;;;;;;;;;5131296;27;20255;-68
2022/06/10 13:48:23;;;;;;;5.22;1.48;;;;;;;;;;5100231;28;20206;-68
2022/06/10 13:53:42;;;;;;;5.03;1.20;;;;;;;;;;5110476;28;20182;-67
2022/06/10 13:56:15;;;;;;;3.58;1.15;;;;;;;;;;5110639;28;20218;-67
2022/06/10 13:58:45;;;;;;;5.88;1.20;;;;;;;;;;5089687;28;20529;-67
2022/06/10 14:01:19;;;;;;;1.52;0.90;;;;;;;;;;5109387;28;20599;-68
2022/06/10 14:03:45;;;;;;;5.78;1.08;;;;;;;;;;5109899;28;20616;-68
2022/06/10 14:06:16;;;;;;;3.35;0.80;;;;;;;;;;5113995;27;20243;-68
2022/06/10 14:09:05;;;;;;;2.55;0.90;;;;;;;;;;5113232;27;20188;-68
2022/06/10 14:11:36;;;;;;;3.67;0.90;;;;;;;;;;5113050;27;20207;-66
2022/06/10 14:14:02;;;;;;;3.88;1.10;;;;;;;;;;5130541;27;20247;-67
2022/06/10 14:16:30;;;;;;;5.13;1.17;;;;;;;;;;5130591;27;20632;-68
2022/06/10 14:18:57;;;;;;;9.25;2.05;;;;;;;;;;5117560;28;20222;-69
2022/06/10 14:21:23;;;;;;;6.13;1.95;;;;;;;;;;5106894;28;20685;-66
2022/06/10 14:24:07;;;;;;;6.22;2.13;;;;;;;;;;5109954;28;20309;-67
2022/06/10 14:26:34;;;;;;;8.43;2.35;;;;;;;;;;5109060;28;20185;-67
2022/06/10 14:29:14;;;;;;;7.40;2.55;;;;;;;;;;5109578;28;20169;-67
2022/06/10 14:31:45;;;;;;;9.23;2.55;;;;;;;;;;5109862;28;20188;-67
2022/06/10 14:34:15;;;;;;;7.13;2.60;;;;;;;;;;5091450;28;20409;-67
2022/06/10 14:36:50;;;;;;;11.02;2.95;;;;;;;;;;5109497;28;20181;-67
2022/06/10 14:39:18;;;;;;;11.52;2.95;;;;;;;;;;5089036;28;20554;-67
2022/06/10 14:41:54;;;;;;;11.23;2.97;;;;;;;;;;5128530;28;20228;-68
2022/06/10 14:44:25;;;;;;;8.73;3.45;;;;;;;;;;5111917;28;20188;-68
2022/06/10 14:47:10;;;;;;;8.38;3.08;;;;;;;;;;5123827;28;20663;-67
2022/06/10 14:49:42;;;;;;;11.52;3.38;;;;;;;;;;5091533;28;20185;-68
2022/06/10 14:52:10;;;;;;;6.93;2.83;;;;;;;;;;5108918;28;20217;-67
2022/06/10 14:54:36;;;;;;;5.18;2.00;;;;;;;;;;5129933;28;20268;-67
2022/06/10 14:57:06;;;;;;;10.10;2.50;;;;;;;;;;5106918;28;20181;-66
2022/06/10 14:59:33;;;;;;;10.10;2.55;;;;;;;;;;5077375;28;20192;-68
2022/06/10 15:02:00;;;;;;;7.82;2.10;;;;;;;;;;5090402;28;20225;-67
2022/06/10 15:04:26;;;;;;;11.70;2.88;;;;;;;;;;5109467;28;20205;-67
2022/06/10 15:06:59;;;;;;;6.00;2.05;;;;;;;;;;5109436;28;20581;-67
2022/06/10 15:09:30;;;;;;;6.93;2.22;;;;;;;;;;5091042;28;20253;-68
2022/06/10 15:11:57;;;;;;;8.30;2.58;;;;;;;;;;5108572;28;20200;-67
2022/06/10 15:14:23;;;;;;;6.75;1.83;;;;;;;;;;5091860;28;20196;-68